Aviation Digital Data Service (ADDS)

Output produced by METARs form (0138 UTC 23 November 2017)
found at http://www.aviationweather.gov/adds/metars/
 
HEAX 230000Z 32008KT 9999 SCT020 18/06 Q1020 NOSIG
TAF HEAX 222300Z 2300/2406 31010KT 9999 SCT020 
     PROB30 
     TEMPO 2300/2406 7000 -RA BKN020
       
HEBA 230000Z 00000KT 9999 FEW020 13/08 Q1021 NOSIG
TAF HEBA 222300Z 2300/2406 31010KT 9999 SCT020 
     PROB30 
     TEMPO 2300/2406 7000 -RA BKN020
       
HESN 230000Z 35008KT CAVOK 14/03 Q1018 NOSIG
TAF HESN 222300Z 2300/2406 02012KT CAVOK
       
HEAT 230000Z 35013KT CAVOK 13/09 Q1022 NOSIG
TAF HEAT 222300Z 2300/2406 34010G20KT CAVOK 
     TEMPO 2303/2308 VRB03KT 4000 HZ NSC
       
HECA 230130Z 24004KT CAVOK 15/09 Q1021 NOSIG
TAF HECA 222300Z 2300/2406 32008KT CAVOK 
     TEMPO 2221/2309 VRB03KT 6000 NSC 
     TEMPO 2300/2307 3000 BR 
     BECMG 2315/2318 VRB03KT
       
HEAR 222300Z 24004KT 9999 SCT025 14/08 Q1019 NOSIG
TAF HEAR 222300Z 2300/2406 29008KT 9999 SCT030 
     TEMPO 2300/2306 VRB03KT 3000 RA/BR BKN025
       
HEGN 230000Z 31013KT CAVOK 16/08 Q1018 NOSIG
TAF HEGN 222300Z 2300/2406 29012KT CAVOK
       
HELX 230000Z 24003KT CAVOK 16/05 Q1018 NOSIG
TAF HELX 222300Z 2300/2406 33010KT CAVOK 
     TEMPO 2303/2308 VRB03KT 4000 HZ NSC
       
HEMM 230000Z 24006KT CAVOK 15/09 Q1022 NOSIG
TAF HEMM 222300Z 2300/2406 28011KT 9999 SCT020 
     TEMPO 2300/2406 6000 RA BKN020
       
HEPS 230000Z 28007KT 9999 FEW025 17/10 Q1019 NOSIG
TAF HEPS 222300Z 2300/2406 30013KT 9999 SCT025
       
HESH 230000Z 36011KT CAVOK 18/03 Q1017 NOSIG
TAF HESH 222300Z 2300/2406 34012KT CAVOK
       
TAF HETB 222300Z 2300/2406 35012KT CAVOK